Lac La Biche, Canada
Current Conditions -  °F | °C
As of 7:00 AM on Wednesday 26 Nov 2014 (Local Time) from CYOD Reporting Station
Overcast Overcast  
Wind Chill: -16°   Ceiling: 800
Heat Index: -2°   Visibility: 15mi
Dew Point: -8°   Wind: 7mph
Humidity: 78%   Direction: 130°SE
Pressure: 30.31"   Gusts: NA
Location:  54.77°N, 111.98°W
Report Text: CYOD 261400Z 13006KT 15SM OVC008 M19/M22 A3031 RMK SC5 SLP316
Loading
Personal Weather Stations






























Interactive Weather Map New forecast layout! Learn more

10-Day Weather Forecast

Advertisements
Track Severe Weather on mobile